createdAt,value
2023-03-27T00:00:01.019Z,349.9
2023-03-27T00:05:00.671Z,334.7
2023-03-27T00:10:00.693Z,341.5
2023-03-27T00:15:00.700Z,342.2
2023-03-27T00:20:00.785Z,352.9
2023-03-27T00:25:00.671Z,345.4
2023-03-27T00:30:00.713Z,332.6
2023-03-27T00:35:00.694Z,332.7
2023-03-27T00:40:00.760Z,347.9
2023-03-27T00:45:00.691Z,351.4
2023-03-27T00:50:00.686Z,357.9
2023-03-27T00:55:00.710Z,356.5
2023-03-27T01:00:00.698Z,346.7
2023-03-27T01:05:00.672Z,353.0
2023-03-27T01:10:00.713Z,342.0
2023-03-27T01:15:00.718Z,345.1
2023-03-27T01:20:00.665Z,347.3
2023-03-27T01:25:00.684Z,338.7
2023-03-27T01:30:00.734Z,353.1
2023-03-27T01:35:03.876Z,344.2
2023-03-27T01:40:00.715Z,345.0
2023-03-27T01:45:00.669Z,340.0
2023-03-27T01:50:00.705Z,355.3
2023-03-27T01:55:00.664Z,357.8
2023-03-27T02:00:19.845Z,351.9
2023-03-27T02:05:00.795Z,348.9
2023-03-27T02:10:00.676Z,347.2
2023-03-27T02:15:25.064Z,332.4
2023-03-27T02:20:00.655Z,336.0
2023-03-27T02:25:00.714Z,324.8
2023-03-27T02:30:00.711Z,303.0
2023-03-27T02:35:00.709Z,308.5
2023-03-27T02:40:00.801Z,303.2
2023-03-27T02:45:00.665Z,312.9
2023-03-27T02:50:00.758Z,305.9
2023-03-27T02:55:01.720Z,321.4
2023-03-27T03:00:00.768Z,313.9
2023-03-27T03:05:00.667Z,306.9
2023-03-27T03:10:00.849Z,299.7
2023-03-27T03:15:00.736Z,311.5
2023-03-27T03:20:00.688Z,305.9
2023-03-27T03:25:00.682Z,309.8
2023-03-27T03:30:00.861Z,302.8
2023-03-27T03:35:00.688Z,307.3
2023-03-27T03:40:00.769Z,315.7
2023-03-27T03:45:00.677Z,303.1
2023-03-27T03:50:00.726Z,293.1
2023-03-27T03:55:00.737Z,279.4
2023-03-27T04:00:00.695Z,248.4
2023-03-27T04:05:10.846Z,264.5
2023-03-27T04:10:00.798Z,268.6
2023-03-27T04:15:00.728Z,290.9
2023-03-27T04:20:00.768Z,275.1
2023-03-27T04:25:00.668Z,271.5
2023-03-27T04:30:00.758Z,271.4
2023-03-27T04:35:00.653Z,272.9
2023-03-27T04:40:00.735Z,273.5
2023-03-27T04:45:00.648Z,269.1
2023-03-27T04:50:00.745Z,279.7
2023-03-27T04:55:00.851Z,284.7
2023-03-27T05:00:00.802Z,274.3
2023-03-27T05:05:00.747Z,268.1
2023-03-27T05:10:00.712Z,242.6
2023-03-27T05:15:00.859Z,230.1
2023-03-27T05:20:00.681Z,228.9
2023-03-27T05:25:00.681Z,246.7
2023-03-27T05:30:00.729Z,249.1
2023-03-27T05:35:00.711Z,264.5
2023-03-27T05:40:00.697Z,284.4
2023-03-27T05:45:00.684Z,278.1
2023-03-27T05:50:00.741Z,271.8
2023-03-27T05:55:00.830Z,284.3
2023-03-27T06:00:00.678Z,284.2
2023-03-27T06:05:00.742Z,286.8
2023-03-27T06:10:00.702Z,275.7
2023-03-27T06:15:00.691Z,291.5
2023-03-27T06:20:00.740Z,285.9
2023-03-27T06:25:00.672Z,287.4
2023-03-27T06:30:00.739Z,282.9
2023-03-27T06:35:01.174Z,278.2
2023-03-27T06:40:00.764Z,282.9
2023-03-27T06:45:00.683Z,277.7
2023-03-27T06:50:00.725Z,289.0
2023-03-27T06:55:00.715Z,275.2
2023-03-27T07:00:03.115Z,263.2
2023-03-27T07:05:05.862Z,289.6
2023-03-27T07:10:00.696Z,296.6
2023-03-27T07:15:00.843Z,304.4
2023-03-27T07:20:00.775Z,268.3
2023-03-27T07:25:00.733Z,310.8
2023-03-27T07:30:00.761Z,284.9
2023-03-27T07:35:00.736Z,281.3
2023-03-27T07:40:00.739Z,280.0
2023-03-27T07:45:04.801Z,260.3
2023-03-27T07:50:00.771Z,294.4
2023-03-27T07:55:00.672Z,280.6
2023-03-27T08:00:00.741Z,271.5
2023-03-27T08:05:01.541Z,280.6
2023-03-27T08:10:00.776Z,303.8
2023-03-27T08:15:00.735Z,288.4
2023-03-27T08:20:00.780Z,294.4
2023-03-27T08:25:00.735Z,278.1
2023-03-27T08:30:00.783Z,254.1
2023-03-27T08:35:00.710Z,276.1
2023-03-27T08:40:00.729Z,309.5
2023-03-27T08:45:00.801Z,277.8
2023-03-27T08:50:00.779Z,259.4
2023-03-27T08:55:00.832Z,287.0
2023-03-27T09:00:00.791Z,289.5
2023-03-27T09:05:00.691Z,277.0
2023-03-27T09:10:01.313Z,276.4
2023-03-27T09:15:00.747Z,285.9
2023-03-27T09:20:00.817Z,311.0
2023-03-27T09:25:00.792Z,296.3
2023-03-27T09:30:06.735Z,246.3
2023-03-27T09:35:00.800Z,302.3
2023-03-27T09:40:00.839Z,279.3
2023-03-27T09:45:00.731Z,292.1
2023-03-27T09:50:00.746Z,286.7
2023-03-27T09:55:00.817Z,300.9
2023-03-27T10:00:00.938Z,301.7
2023-03-27T10:05:00.778Z,301.7
2023-03-27T10:10:00.745Z,293.9
2023-03-27T10:15:02.023Z,310.1
2023-03-27T10:20:00.785Z,303.9
2023-03-27T10:25:00.734Z,328.3
2023-03-27T10:30:00.735Z,290.5
2023-03-27T10:35:01.084Z,307.8
2023-03-27T10:40:00.857Z,300.1
2023-03-27T10:45:00.762Z,285.6
2023-03-27T10:50:00.757Z,274.6
2023-03-27T10:55:00.793Z,274.4
2023-03-27T11:00:00.807Z,323.8
2023-03-27T11:05:00.710Z,299.7
2023-03-27T11:10:00.794Z,304.3
2023-03-27T11:15:00.736Z,276.7
2023-03-27T11:20:00.707Z,276.8
2023-03-27T11:25:00.743Z,284.2
2023-03-27T11:30:00.785Z,297.7
2023-03-27T11:35:04.691Z,305.5
2023-03-27T11:40:00.807Z,298.7
2023-03-27T11:45:00.755Z,286.4
2023-03-27T11:50:00.721Z,265.6
2023-03-27T11:55:00.691Z,293.8
2023-03-27T12:00:00.841Z,246.4
2023-03-27T12:05:00.671Z,279.4
2023-03-27T12:10:00.756Z,252.0
2023-03-27T12:15:00.939Z,247.2
2023-03-27T12:20:00.730Z,295.6
2023-03-27T12:25:00.722Z,247.2
2023-03-27T12:30:00.773Z,278.8
2023-03-27T12:35:00.734Z,313.5
2023-03-27T12:40:00.765Z,318.0
2023-03-27T12:45:00.743Z,352.3
2023-03-27T12:50:00.791Z,359.4
2023-03-27T12:55:00.694Z,337.5
2023-03-27T13:00:00.761Z,301.5
2023-03-27T13:05:00.728Z,274.3
2023-03-27T13:10:00.731Z,271.0
2023-03-27T13:15:00.781Z,276.1
2023-03-27T13:20:00.772Z,257.8
2023-03-27T13:25:00.697Z,299.6
2023-03-27T13:30:00.815Z,240.2
2023-03-27T13:35:00.684Z,240.6
2023-03-27T13:40:00.765Z,287.3
2023-03-27T13:45:00.711Z,248.4
2023-03-27T13:50:00.762Z,278.4
2023-03-27T13:55:00.717Z,332.0
2023-03-27T14:00:00.722Z,259.9
2023-03-27T14:05:00.688Z,307.5
2023-03-27T14:10:00.792Z,296.5
2023-03-27T14:15:00.835Z,258.9
2023-03-27T14:20:00.722Z,274.3
2023-03-27T14:25:00.775Z,284.2
2023-03-27T14:30:00.924Z,262.2
2023-03-27T14:35:00.772Z,254.8
2023-03-27T14:40:01.070Z,326.0
2023-03-27T14:45:00.817Z,300.5
2023-03-27T14:50:00.795Z,309.7
2023-03-27T14:55:01.357Z,244.1
2023-03-27T15:00:01.199Z,288.6
2023-03-27T15:05:00.744Z,281.5
2023-03-27T15:10:01.008Z,305.9
2023-03-27T15:15:00.770Z,293.2
2023-03-27T15:20:01.331Z,283.6
2023-03-27T15:25:00.768Z,274.4
2023-03-27T15:30:01.510Z,242.7
2023-03-27T15:35:00.819Z,249.2
2023-03-27T15:40:01.250Z,269.0
2023-03-27T15:45:01.281Z,279.6
2023-03-27T15:50:00.848Z,300.2
2023-03-27T15:55:00.872Z,283.7
2023-03-27T16:00:01.044Z,291.6
2023-03-27T16:05:00.758Z,291.6
2023-03-27T16:10:00.920Z,329.3
2023-03-27T16:15:01.270Z,292.9
2023-03-27T16:20:00.882Z,264.9
2023-03-27T16:25:00.699Z,237.8
2023-03-27T16:30:00.728Z,257.3
2023-03-27T16:35:00.751Z,264.6
2023-03-27T16:40:01.176Z,262.8
2023-03-27T16:45:00.800Z,256.2
2023-03-27T16:50:12.076Z,259.2
2023-03-27T16:55:00.938Z,251.7
2023-03-27T17:00:01.263Z,254.9
2023-03-27T17:05:01.305Z,249.3
2023-03-27T17:10:00.904Z,263.1
2023-03-27T17:15:00.846Z,255.1
2023-03-27T17:20:01.267Z,263.0
2023-03-27T17:25:00.739Z,258.4
2023-03-27T17:30:00.766Z,266.1
2023-03-27T17:35:00.944Z,235.9
2023-03-27T17:40:00.877Z,245.3
2023-03-27T17:45:00.794Z,242.4
2023-03-27T17:50:00.767Z,206.5
2023-03-27T17:55:00.867Z,209.0
2023-03-27T18:00:00.850Z,234.6
2023-03-27T18:05:00.722Z,215.2
2023-03-27T18:10:00.742Z,239.1
2023-03-27T18:15:00.806Z,231.0
2023-03-27T18:20:00.779Z,241.3
2023-03-27T18:25:00.703Z,243.5
2023-03-27T18:30:00.796Z,231.3
2023-03-27T18:35:00.742Z,247.5
2023-03-27T18:40:00.843Z,243.2
2023-03-27T18:45:00.698Z,242.2
2023-03-27T18:50:00.757Z,232.1
2023-03-27T18:55:00.722Z,236.8
2023-03-27T19:00:00.787Z,232.4
2023-03-27T19:05:00.776Z,214.5
2023-03-27T19:10:00.763Z,208.1
2023-03-27T19:15:20.707Z,208.5
2023-03-27T19:20:00.842Z,217.1
2023-03-27T19:25:00.780Z,223.6
2023-03-27T19:30:00.777Z,215.4
2023-03-27T19:35:00.739Z,214.6
2023-03-27T19:40:00.844Z,206.5
2023-03-27T19:45:00.732Z,200.8
2023-03-27T19:50:00.694Z,214.9
2023-03-27T19:55:00.845Z,213.5
2023-03-27T20:00:00.835Z,220.3
2023-03-27T20:05:00.727Z,223.2
2023-03-27T20:10:00.732Z,197.3
2023-03-27T20:15:12.967Z,217.6
2023-03-27T20:20:00.731Z,221.0
2023-03-27T20:25:00.665Z,213.9
2023-03-27T20:30:00.792Z,242.7
2023-03-27T20:35:25.107Z,225.2
2023-03-27T20:40:00.645Z,246.1
2023-03-27T20:45:00.676Z,238.9
2023-03-27T20:50:00.699Z,240.9
2023-03-27T20:55:00.657Z,227.9
2023-03-27T21:00:00.741Z,221.5
2023-03-27T21:05:00.680Z,236.3
2023-03-27T21:10:00.702Z,242.6
2023-03-27T21:15:00.684Z,249.5
2023-03-27T21:20:00.705Z,244.3
2023-03-27T21:25:00.727Z,229.9
2023-03-27T21:30:00.854Z,241.1
2023-03-27T21:35:00.697Z,224.2
2023-03-27T21:40:00.774Z,240.1
2023-03-27T21:45:00.718Z,243.3
2023-03-27T21:50:00.719Z,250.4
2023-03-27T21:55:04.090Z,250.3
2023-03-27T22:00:00.702Z,247.2
2023-03-27T22:05:00.953Z,258.3
2023-03-27T22:10:01.199Z,259.5
2023-03-27T22:15:01.182Z,279.6
2023-03-27T22:20:00.697Z,292.5
2023-03-27T22:25:00.659Z,286.4
2023-03-27T22:30:00.698Z,262.5
2023-03-27T22:35:00.670Z,254.7
2023-03-27T22:40:00.698Z,252.6
2023-03-27T22:45:00.680Z,264.7
2023-03-27T22:50:00.694Z,258.6
2023-03-27T22:55:00.742Z,246.3
2023-03-27T23:00:00.767Z,254.0
2023-03-27T23:05:00.712Z,260.7
2023-03-27T23:10:00.725Z,267.5
2023-03-27T23:15:00.740Z,275.2
2023-03-27T23:20:00.750Z,281.1
2023-03-27T23:25:00.725Z,270.8
2023-03-27T23:30:00.945Z,277.0
2023-03-27T23:35:00.713Z,332.8
2023-03-27T23:40:00.727Z,322.1
2023-03-27T23:45:00.659Z,347.0
2023-03-27T23:50:00.699Z,311.7
2023-03-27T23:55:00.801Z,285.7
